Aviation Digital Data Service (ADDS)

Output produced by METARs form (2154 UTC 19 February 2018)
found at http://www.aviationweather.gov/adds/metars/
 
TAF TUPJ 191700Z 1918/2018 07017KT 9999 SCT020 
     PROB40 
     TEMPO 1918/2012 SHRA